• Join FlightAware (Why Join?)
  • Login
  • US Flag 
06:14PM EDT


 

Airport Tracker/Info


-or-


 

Live Flight TrackerFlight Track Log ✈ N9476C ✈ 19-Jul-2013 ✈ KIGX - KCLT

Flight Track Log - Related Links

Times and Time Zones

All times are in EDT time to prevent confusion due to time zone crossing. See the N9476C flight status page for this flight to view local times or setup timezone preferences in your user account.

Time Position Orientation Groundspeed Altitude Reporting Facility
EDT Latitude Longitude Course Direction KTS MPH feet Rate Location/Type
01:42PM 35.9208 -79.1111 262° West 127 146 2,100  Level Washington Center
01:42PM 35.9178 -79.1392 262° West 122 140 2,600 780 Climbing Washington Center
01:43PM 35.9083 -79.1797 254° West 125 144 3,500 960 Climbing Washington Center
01:44PM 35.8964 -79.2278 253° West 122 140 4,700 1,020 Climbing Washington Center
01:45PM 35.8914 -79.2508 255° West 115 132 5,400 60 Climbing Washington Center
01:47PM 35.8691 -79.3143 250° West  Level FlightAware Approximate
01:54PM 35.7814 -79.6267 229° Southwest  Level FlightAware Approximate
01:55PM 35.7562 -79.6629 229° Southwest  Level FlightAware Approximate
01:56PM 35.7310 -79.6991 229° Southwest  Level FlightAware Approximate
01:57PM 35.7059 -79.7352 229° Southwest  Level FlightAware Approximate
01:58PM 35.6807 -79.7713 229° Southwest  Level FlightAware Approximate
01:59PM 35.6554 -79.8074 229° Southwest  Level FlightAware Approximate
02:00PM 35.6302 -79.8434 229° Southwest  Level FlightAware Approximate
02:01PM 35.6050 -79.8795 229° Southwest  Level FlightAware Approximate
02:01PM 35.5558 -79.8728 229° Southwest 144 166 6,000  Level Atlanta Center
02:02PM 35.5798 -79.9155 229° Southwest  Level FlightAware Approximate
02:03PM 35.5545 -79.9515 229° Southwest  Level FlightAware Approximate
02:03PM 35.5303 -79.9200 236° Southwest 144 166 6,100  Level Atlanta Center
02:04PM 35.5292 -79.9874 229° Southwest  Level FlightAware Approximate
02:04PM 35.5108 -79.9669 243° Southwest 144 166 6,000  Level Atlanta Center
02:05PM 35.5040 -80.0234 229° Southwest  Level FlightAware Approximate
02:05PM 35.4956 -80.0058 244° Southwest 145 167 6,000  Level Atlanta Center
02:06PM 35.4787 -80.0593 229° Southwest  Level FlightAware Approximate
02:07PM 35.4534 -80.0952 229° Southwest  Level FlightAware Approximate